Time;durP1;ratioP1;P1;durP2;ratioP2;P2;SDS_P1;SDS_P2;PMS_P1;PMS_P2;Temp;Humidity;BMP_temperature;BMP_pressure;BME280_temperature;BME280_humidity;BME280_pressure;Samples;Min_cycle;Max_cycle;Signal;HPM_P1;HPM_P2
2023/09/19 00:00:27;;;;;;;1.00;0.70;;;25.60;54.00;;;;;;4999459;28;20093;-66
2023/09/19 00:03:00;;;;;;;0.95;0.65;;;25.50;53.90;;;;;;5002133;28;20065;-66
2023/09/19 00:05:27;;;;;;;0.80;0.70;;;25.50;54.00;;;;;;5001777;28;20033;-66
2023/09/19 00:07:54;;;;;;;0.90;0.70;;;25.50;54.50;;;;;;5000421;28;20102;-66
2023/09/19 00:10:24;;;;;;;1.08;0.80;;;25.50;54.00;;;;;;5001607;28;20034;-66
2023/09/19 00:12:52;;;;;;;0.80;0.63;;;25.50;54.50;;;;;;5002180;28;20068;-66
2023/09/19 00:15:18;;;;;;;0.90;0.70;;;25.50;54.00;;;;;;5002786;28;20070;-66
2023/09/19 00:17:44;;;;;;;0.63;0.60;;;25.50;54.00;;;;;;5000750;28;20072;-67
2023/09/19 00:20:13;;;;;;;1.05;0.70;;;25.50;54.00;;;;;;4998162;28;20021;-66
2023/09/19 00:22:44;;;;;;;1.20;0.90;;;25.50;54.00;;;;;;4999753;28;20038;-67
2023/09/19 00:25:15;;;;;;;0.68;0.45;;;25.50;54.10;;;;;;5002354;28;20054;-67
2023/09/19 00:27:42;;;;;;;1.35;0.70;;;25.50;54.10;;;;;;5000444;28;20018;-62
2023/09/19 00:30:14;;;;;;;1.90;0.80;;;25.50;54.10;;;;;;5001392;28;20041;-62
2023/09/19 00:32:41;;;;;;;1.20;0.75;;;25.50;54.10;;;;;;5000241;28;20034;-62
2023/09/19 00:35:09;;;;;;;1.85;0.70;;;25.50;54.20;;;;;;4999817;28;20399;-63
2023/09/19 00:37:35;;;;;;;1.00;0.70;;;25.40;54.10;;;;;;4998617;28;20461;-66
2023/09/19 00:40:01;;;;;;;1.08;0.70;;;25.40;54.10;;;;;;5002189;28;20388;-66
2023/09/19 00:42:28;;;;;;;0.93;0.70;;;25.40;54.10;;;;;;5001748;28;20085;-66
2023/09/19 00:44:53;;;;;;;1.33;0.70;;;25.40;54.10;;;;;;5000968;28;20030;-66
2023/09/19 00:47:20;;;;;;;0.60;0.60;;;25.40;54.10;;;;;;5001390;28;20380;-66
2023/09/19 00:49:49;;;;;;;0.75;0.60;;;25.40;54.10;;;;;;5001177;28;20079;-66
2023/09/19 00:52:15;;;;;;;0.75;0.60;;;25.40;54.70;;;;;;4997827;28;20364;-66
2023/09/19 00:54:41;;;;;;;0.98;0.70;;;25.40;54.20;;;;;;5000580;28;20770;-66
2023/09/19 00:57:08;;;;;;;0.90;0.80;;;25.40;54.20;;;;;;4999519;28;20112;-66
2023/09/19 00:59:35;;;;;;;1.02;0.70;;;25.40;54.20;;;;;;5001999;28;20489;-66
2023/09/19 01:02:02;;;;;;;1.02;0.73;;;25.40;54.20;;;;;;5000915;28;20514;-66
2023/09/19 01:04:28;;;;;;;1.13;0.70;;;25.40;54.20;;;;;;5002225;28;20026;-66
2023/09/19 01:06:54;;;;;;;1.75;0.60;;;25.40;54.20;;;;;;5000525;28;20889;-66
2023/09/19 01:09:21;;;;;;;1.08;0.65;;;25.40;54.20;;;;;;4999663;28;20070;-66
2023/09/19 01:11:50;;;;;;;0.77;0.60;;;25.40;54.20;;;;;;5000028;28;20038;-66
2023/09/19 01:14:57;;;;;;;1.33;0.80;;;25.40;54.20;;;;;;4999529;28;20059;-66
2023/09/19 01:17:34;;;;;;;1.25;0.80;;;25.40;54.30;;;;;;4997196;28;20035;-66
2023/09/19 01:20:11;;;;;;;0.75;0.60;;;25.40;54.30;;;;;;4999818;28;20036;-66
2023/09/19 01:23:01;;;;;;;0.98;0.60;;;25.40;54.30;;;;;;4999622;28;20025;-66
2023/09/19 01:25:56;;;;;;;0.70;0.60;;;25.40;54.30;;;;;;4998585;28;20040;-66
2023/09/19 01:28:27;;;;;;;0.75;0.57;;;25.30;54.20;;;;;;4999086;28;20125;-66
2023/09/19 01:30:59;;;;;;;0.77;0.60;;;25.30;54.30;;;;;;5001130;28;20033;-66
2023/09/19 01:33:26;;;;;;;0.55;0.55;;;25.30;54.30;;;;;;4998198;28;20027;-66
2023/09/19 01:35:52;;;;;;;1.05;0.60;;;25.30;54.30;;;;;;5000023;28;20037;-65
2023/09/19 01:38:19;;;;;;;0.60;0.50;;;25.30;54.30;;;;;;5001650;28;20113;-67
2023/09/19 01:41:11;;;;;;;1.10;0.65;;;25.30;54.30;;;;;;5001534;28;20469;-67
2023/09/19 01:43:42;;;;;;;1.23;0.70;;;25.30;54.30;;;;;;4998431;28;20026;-67
2023/09/19 01:46:15;;;;;;;0.90;0.70;;;25.30;54.30;;;;;;5000127;28;20481;-65
2023/09/19 01:48:42;;;;;;;0.98;0.68;;;25.30;54.30;;;;;;4999434;28;20052;-65
2023/09/19 01:51:11;;;;;;;0.70;0.60;;;25.30;54.30;;;;;;4999628;28;20109;-65
2023/09/19 01:53:55;;;;;;;0.60;0.60;;;25.30;54.40;;;;;;4998860;28;20049;-65
2023/09/19 01:56:35;;;;;;;1.02;0.60;;;25.30;54.40;;;;;;4999400;28;20421;-65
2023/09/19 01:59:09;;;;;;;0.80;0.70;;;25.30;54.40;;;;;;4999321;28;20097;-65
2023/09/19 02:01:37;;;;;;;0.57;0.57;;;25.20;54.30;;;;;;5013564;28;20105;-65
2023/09/19 02:04:02;;;;;;;1.00;0.68;;;25.30;54.40;;;;;;5001026;28;20370;-65
2023/09/19 02:06:28;;;;;;;1.45;0.70;;;25.30;54.40;;;;;;4999262;28;20038;-65
2023/09/19 02:08:55;;;;;;;1.25;0.80;;;25.30;54.40;;;;;;4997210;28;20466;-65
2023/09/19 02:11:21;;;;;;;0.65;0.60;;;25.20;54.30;;;;;;4997933;28;20509;-65
2023/09/19 02:13:47;;;;;;;0.63;0.60;;;25.20;54.40;;;;;;4999036;28;20428;-65
2023/09/19 02:16:13;;;;;;;1.10;0.88;;;25.20;54.40;;;;;;5001815;28;20038;-65
2023/09/19 02:18:39;;;;;;;0.68;0.60;;;25.20;54.40;;;;;;4999937;28;20037;-65
2023/09/19 02:21:06;;;;;;;1.00;0.60;;;25.20;54.40;;;;;;4997263;28;20505;-65
2023/09/19 02:23:33;;;;;;;0.75;0.60;;;25.20;54.40;;;;;;4997820;28;20042;-65
2023/09/19 02:26:03;;;;;;;1.13;0.70;;;25.20;54.40;;;;;;4999357;28;20061;-65
2023/09/19 02:28:32;;;;;;;1.00;0.50;;;25.20;54.90;;;;;;4998596;28;20061;-65
2023/09/19 02:31:01;;;;;;;1.00;0.70;;;25.20;54.40;;;;;;4999500;28;20587;-65
2023/09/19 02:33:26;;;;;;;0.52;0.52;;;25.20;54.40;;;;;;4999040;28;20038;-65
2023/09/19 02:35:59;;;;;;;0.80;0.60;;;25.20;54.40;;;;;;5001099;28;20513;-65
2023/09/19 02:38:28;;;;;;;1.15;0.70;;;25.20;54.40;;;;;;4999593;28;20033;-65
2023/09/19 02:40:55;;;;;;;0.65;0.57;;;25.20;54.90;;;;;;4999607;28;20101;-65
2023/09/19 02:43:21;;;;;;;0.95;0.70;;;25.20;54.40;;;;;;4997343;28;20030;-65
2023/09/19 02:45:49;;;;;;;0.60;0.55;;;25.20;54.40;;;;;;5013997;28;20034;-65
2023/09/19 02:48:15;;;;;;;1.10;0.70;;;25.20;54.40;;;;;;4999650;28;20439;-65
2023/09/19 02:50:41;;;;;;;0.77;0.60;;;25.10;54.40;;;;;;4999100;28;20076;-65
2023/09/19 02:53:07;;;;;;;0.60;0.50;;;25.20;54.50;;;;;;4997706;28;20037;-65
2023/09/19 02:55:33;;;;;;;0.73;0.57;;;25.20;54.50;;;;;;4999509;28;20030;-65
2023/09/19 02:58:01;;;;;;;0.73;0.60;;;25.10;54.40;;;;;;5012281;28;20018;-66
2023/09/19 03:00:27;;;;;;;0.73;0.70;;;25.10;54.40;;;;;;5000093;28;20490;-66
2023/09/19 03:02:54;;;;;;;0.85;0.63;;;25.10;54.40;;;;;;4999617;28;20021;-66
2023/09/19 03:05:21;;;;;;;0.80;0.60;;;25.10;54.40;;;;;;4998265;28;20022;-66
2023/09/19 03:07:50;;;;;;;0.85;0.60;;;25.10;54.50;;;;;;4997866;28;20048;-66
2023/09/19 03:10:19;;;;;;;0.63;0.50;;;25.10;54.40;;;;;;4999686;28;20027;-66
2023/09/19 03:12:46;;;;;;;0.82;0.55;;;25.10;54.40;;;;;;4999043;28;20030;-66
2023/09/19 03:15:12;;;;;;;0.63;0.55;;;25.10;54.50;;;;;;5001379;28;20026;-66
2023/09/19 03:17:37;;;;;;;1.05;0.70;;;25.10;54.50;;;;;;5014755;28;20035;-66
2023/09/19 03:20:08;;;;;;;0.70;0.50;;;25.10;54.50;;;;;;4999038;28;20026;-66
2023/09/19 03:22:34;;;;;;;0.63;0.50;;;25.10;54.50;;;;;;4997726;28;20548;-66
2023/09/19 03:25:00;;;;;;;0.45;0.45;;;25.10;54.50;;;;;;4999379;28;20026;-67
2023/09/19 03:27:27;;;;;;;0.50;0.50;;;25.10;54.50;;;;;;5002334;28;20018;-66
2023/09/19 03:29:53;;;;;;;1.02;0.60;;;25.10;54.50;;;;;;5003013;28;20026;-67
2023/09/19 03:32:19;;;;;;;0.82;0.65;;;25.10;54.50;;;;;;5002666;28;20477;-66
2023/09/19 03:34:45;;;;;;;0.73;0.60;;;25.10;54.50;;;;;;5000903;28;20061;-66
2023/09/19 03:37:10;;;;;;;0.60;0.60;;;25.10;54.50;;;;;;5001661;28;20022;-66
2023/09/19 03:39:36;;;;;;;0.75;0.68;;;25.10;54.50;;;;;;5003770;28;20384;-67
2023/09/19 03:42:03;;;;;;;0.93;0.60;;;25.10;54.50;;;;;;5000611;28;20060;-66
2023/09/19 03:44:30;;;;;;;0.75;0.63;;;25.10;54.50;;;;;;5000446;28;20031;-66
2023/09/19 03:46:56;;;;;;;0.50;0.50;;;25.10;54.80;;;;;;5002613;28;20026;-66
2023/09/19 03:49:22;;;;;;;0.98;0.55;;;25.10;54.60;;;;;;5003745;28;20035;-66
2023/09/19 03:51:48;;;;;;;0.77;0.60;;;25.10;54.60;;;;;;5001397;28;20508;-66
2023/09/19 03:54:13;;;;;;;0.88;0.60;;;25.10;54.60;;;;;;5002585;28;20034;-66
2023/09/19 03:56:39;;;;;;;0.45;0.45;;;25.10;54.60;;;;;;5002313;28;20064;-66
2023/09/19 03:59:05;;;;;;;0.55;0.55;;;25.10;54.60;;;;;;5002730;28;20037;-66
2023/09/19 04:01:32;;;;;;;0.50;0.50;;;25.00;54.50;;;;;;5002113;28;20034;-66
2023/09/19 04:03:58;;;;;;;1.00;0.50;;;25.00;54.50;;;;;;4999405;28;20024;-66
2023/09/19 04:06:24;;;;;;;0.55;0.55;;;25.00;54.50;;;;;;5002460;28;20030;-66
2023/09/19 04:08:49;;;;;;;0.90;0.60;;;25.00;54.60;;;;;;5000926;28;20018;-66
2023/09/19 04:11:15;;;;;;;1.00;0.68;;;25.00;54.60;;;;;;4999869;28;20034;-66
2023/09/19 04:13:41;;;;;;;0.80;0.63;;;25.00;54.60;;;;;;5004121;28;20057;-66
2023/09/19 04:16:06;;;;;;;0.50;0.50;;;25.00;54.60;;;;;;5002143;28;20089;-66
2023/09/19 04:18:33;;;;;;;0.98;0.60;;;25.00;54.60;;;;;;5001691;28;20020;-66
2023/09/19 04:21:02;;;;;;;0.73;0.60;;;25.00;54.60;;;;;;5001075;28;20036;-66
2023/09/19 04:23:28;;;;;;;0.50;0.50;;;25.00;54.60;;;;;;5000765;28;20612;-66
2023/09/19 04:25:54;;;;;;;0.65;0.52;;;25.00;54.60;;;;;;5003052;28;20062;-66
2023/09/19 04:28:19;;;;;;;0.52;0.52;;;25.00;54.60;;;;;;5003314;28;20038;-67
2023/09/19 04:30:45;;;;;;;0.88;0.70;;;25.00;54.60;;;;;;5000201;28;20062;-67
2023/09/19 04:33:14;;;;;;;0.50;0.50;;;25.00;54.70;;;;;;5000451;28;20549;-66
2023/09/19 04:35:42;;;;;;;0.93;0.60;;;25.00;54.70;;;;;;5000703;28;20386;-67
2023/09/19 04:38:08;;;;;;;0.80;0.70;;;25.00;54.70;;;;;;4999315;28;20029;-66
2023/09/19 04:40:33;;;;;;;0.80;0.63;;;25.00;54.70;;;;;;4999916;28;20030;-67
2023/09/19 04:43:00;;;;;;;0.93;0.60;;;25.00;54.70;;;;;;5000078;28;20040;-66
2023/09/19 04:45:27;;;;;;;0.70;0.70;;;25.00;54.70;;;;;;4999610;28;20033;-67
2023/09/19 04:47:53;;;;;;;0.60;0.57;;;25.00;54.70;;;;;;5000303;28;20030;-67
2023/09/19 04:50:19;;;;;;;0.57;0.50;;;25.00;54.70;;;;;;5002738;28;20030;-67
2023/09/19 04:52:45;;;;;;;1.98;0.70;;;25.00;54.70;;;;;;4999865;28;20138;-67
2023/09/19 04:55:16;;;;;;;1.02;0.68;;;25.00;54.80;;;;;;5000575;28;20061;-67
2023/09/19 04:57:44;;;;;;;0.60;0.50;;;25.00;54.70;;;;;;4999979;28;20037;-67
2023/09/19 05:00:14;;;;;;;1.13;0.70;;;25.00;54.80;;;;;;4999747;28;20018;-67
2023/09/19 05:02:41;;;;;;;1.17;0.60;;;24.90;54.70;;;;;;5013926;28;20584;-67
2023/09/19 05:05:08;;;;;;;1.50;0.75;;;24.90;54.70;;;;;;5003005;28;20034;-67
2023/09/19 05:07:34;;;;;;;0.82;0.70;;;24.90;54.70;;;;;;5001643;28;20537;-67
2023/09/19 05:10:00;;;;;;;0.70;0.70;;;24.90;54.70;;;;;;4998506;28;20034;-66
2023/09/19 05:12:29;;;;;;;1.58;0.70;;;24.90;54.70;;;;;;5001753;28;20038;-66
2023/09/19 05:14:55;;;;;;;;;;;24.90;54.70;;;;;;5001741;28;20025;-66
2023/09/19 05:17:21;;;;;;;1.00;0.73;;;24.90;54.70;;;;;;4999029;28;19933;-65
2023/09/19 05:19:46;;;;;;;0.95;0.70;;;24.90;54.70;;;;;;5001411;28;20088;-65
2023/09/19 05:22:12;;;;;;;1.02;0.80;;;24.90;54.70;;;;;;5000274;28;20037;-65
2023/09/19 05:24:39;;;;;;;0.73;0.65;;;24.90;54.70;;;;;;4999451;28;20155;-65
2023/09/19 05:27:07;;;;;;;0.60;0.60;;;24.90;54.70;;;;;;5000129;28;20033;-65
2023/09/19 05:29:33;;;;;;;1.13;0.70;;;24.90;54.70;;;;;;4999718;28;20125;-65
2023/09/19 05:31:59;;;;;;;0.82;0.57;;;24.90;54.70;;;;;;4999200;28;20029;-65
2023/09/19 05:34:28;;;;;;;0.98;0.70;;;24.90;54.70;;;;;;5001966;28;20081;-65
2023/09/19 05:36:54;;;;;;;0.95;0.75;;;24.90;54.70;;;;;;4999317;28;20353;-65
2023/09/19 05:39:20;;;;;;;1.02;0.60;;;24.90;54.70;;;;;;5000092;28;20141;-65
2023/09/19 05:41:47;;;;;;;1.08;0.70;;;24.90;54.70;;;;;;5000700;28;20046;-65
2023/09/19 05:44:14;;;;;;;1.20;0.70;;;24.90;54.70;;;;;;5016312;28;20068;-65
2023/09/19 05:46:39;;;;;;;0.70;0.70;;;24.90;54.70;;;;;;4999960;28;20049;-65
2023/09/19 05:49:05;;;;;;;1.00;0.70;;;24.90;54.70;;;;;;5000440;28;20110;-65
2023/09/19 05:51:31;;;;;;;0.70;0.60;;;24.90;54.70;;;;;;5000256;28;20433;-65
2023/09/19 05:53:57;;;;;;;0.70;0.70;;;24.90;54.70;;;;;;4997398;28;20379;-65
2023/09/19 05:56:23;;;;;;;1.40;0.77;;;24.90;55.30;;;;;;5000681;28;20026;-65
2023/09/19 05:58:49;;;;;;;1.02;0.70;;;24.90;54.70;;;;;;4998620;28;20026;-65
2023/09/19 06:01:15;;;;;;;1.30;0.80;;;24.90;54.70;;;;;;4997432;28;20030;-65
2023/09/19 06:03:40;;;;;;;0.95;0.80;;;24.80;54.90;;;;;;4997553;28;20040;-64
2023/09/19 06:06:06;;;;;;;1.60;0.80;;;24.80;54.90;;;;;;4999032;28;20556;-65
2023/09/19 06:08:33;;;;;;;1.90;0.70;;;24.90;55.00;;;;;;5000020;28;20049;-65
2023/09/19 06:10:59;;;;;;;1.38;0.73;;;24.90;55.00;;;;;;4997859;28;20080;-65
2023/09/19 06:13:27;;;;;;;1.17;0.85;;;24.90;54.80;;;;;;5000611;28;20061;-64
2023/09/19 06:15:53;;;;;;;1.05;0.80;;;24.90;54.80;;;;;;4998611;28;20109;-64
2023/09/19 06:18:21;;;;;;;1.40;0.90;;;24.90;54.70;;;;;;5000774;28;20117;-65
2023/09/19 06:20:48;;;;;;;1.60;0.90;;;25.00;54.70;;;;;;4998584;28;20101;-64
2023/09/19 06:23:14;;;;;;;1.70;0.90;;;25.00;55.20;;;;;;4998523;28;20260;-64
2023/09/19 06:25:40;;;;;;;2.97;0.90;;;25.00;54.70;;;;;;4995762;28;20034;-64
2023/09/19 06:28:08;;;;;;;0.95;0.73;;;25.00;54.60;;;;;;5001276;28;20148;-66
2023/09/19 06:30:34;;;;;;;1.15;0.80;;;25.00;54.70;;;;;;5000002;28;20076;-66
2023/09/19 06:33:00;;;;;;;1.45;0.80;;;25.10;54.80;;;;;;4999753;28;20517;-66
2023/09/19 06:35:29;;;;;;;1.25;0.90;;;25.10;54.80;;;;;;4999111;28;20034;-66
2023/09/19 06:37:57;;;;;;;1.10;0.80;;;25.10;54.80;;;;;;4999101;28;20137;-66
2023/09/19 06:40:24;;;;;;;1.20;0.80;;;25.10;54.80;;;;;;4996811;28;20026;-66
2023/09/19 06:42:53;;;;;;;1.58;0.82;;;25.10;54.80;;;;;;4998113;28;20467;-65
2023/09/19 06:45:21;;;;;;;0.98;0.70;;;25.10;54.80;;;;;;4998112;28;20076;-65
2023/09/19 06:47:50;;;;;;;2.35;0.90;;;25.10;54.80;;;;;;5000503;28;20152;-65
2023/09/19 06:50:22;;;;;;;1.25;0.90;;;25.10;54.80;;;;;;4997799;28;20474;-66
2023/09/19 06:52:50;;;;;;;1.38;0.80;;;25.10;54.80;;;;;;5013352;28;20030;-66
2023/09/19 06:55:16;;;;;;;1.27;0.80;;;25.20;54.90;;;;;;4998637;28;20030;-66
2023/09/19 06:57:45;;;;;;;1.00;0.80;;;25.20;54.80;;;;;;5000163;28;20479;-66
2023/09/19 07:00:18;;;;;;;1.75;0.75;;;25.20;54.70;;;;;;4996951;28;20088;-66
2023/09/19 07:02:54;;;;;;;1.83;0.90;;;25.20;54.60;;;;;;5001877;28;20486;-66
2023/09/19 07:05:21;;;;;;;2.00;0.90;;;25.20;54.60;;;;;;4999015;28;20064;-65
2023/09/19 07:07:47;;;;;;;1.70;1.00;;;25.30;54.30;;;;;;4998326;28;20046;-66
2023/09/19 07:10:14;;;;;;;1.70;1.05;;;25.30;54.10;;;;;;5000317;28;20030;-66
2023/09/19 07:12:41;;;;;;;2.00;1.08;;;25.30;53.80;;;;;;5000477;28;20109;-66
2023/09/19 07:15:07;;;;;;;2.42;1.20;;;25.30;53.70;;;;;;4998498;28;20022;-66
2023/09/19 07:17:33;;;;;;;2.20;1.20;;;25.30;53.60;;;;;;4998788;28;20030;-65
2023/09/19 07:19:59;;;;;;;1.65;1.08;;;25.30;53.30;;;;;;4998596;28;20033;-66
2023/09/19 07:22:26;;;;;;;3.13;1.00;;;25.30;53.80;;;;;;5000112;28;20097;-66
2023/09/19 07:24:52;;;;;;;1.52;1.02;;;25.30;53.20;;;;;;4995446;28;20113;-66
2023/09/19 07:27:18;;;;;;;2.20;1.05;;;25.30;53.10;;;;;;4998684;28;20426;-66
2023/09/19 07:29:44;;;;;;;2.95;1.10;;;25.40;52.90;;;;;;4997825;28;20046;-66
2023/09/19 07:32:11;;;;;;;2.75;1.00;;;25.30;53.00;;;;;;4999128;28;20026;-66
2023/09/19 07:34:40;;;;;;;1.30;0.80;;;25.40;53.00;;;;;;4999678;28;20106;-66
2023/09/19 07:37:06;;;;;;;2.00;1.00;;;25.40;53.00;;;;;;4997925;28;20788;-62
2023/09/19 07:39:31;;;;;;;1.83;0.82;;;25.40;53.00;;;;;;4998664;28;20258;-62
2023/09/19 07:41:58;;;;;;;2.00;0.90;;;25.30;52.80;;;;;;4999050;28;20474;-62
2023/09/19 07:44:25;;;;;;;1.70;1.10;;;25.40;52.80;;;;;;4997717;28;20038;-62
2023/09/19 07:46:52;;;;;;;2.30;1.00;;;25.40;52.80;;;;;;4999612;28;20042;-64
2023/09/19 07:49:17;;;;;;;2.05;1.02;;;25.40;52.90;;;;;;5000622;28;20459;-61
2023/09/19 07:51:46;;;;;;;1.40;0.98;;;25.40;52.90;;;;;;4998390;28;20113;-61
2023/09/19 07:54:12;;;;;;;2.13;1.10;;;25.50;53.00;;;;;;4995974;28;20030;-62
2023/09/19 07:56:38;;;;;;;1.42;0.93;;;25.40;52.90;;;;;;4997019;28;20104;-61
2023/09/19 07:59:04;;;;;;;2.28;1.05;;;25.50;53.00;;;;;;4996172;28;20022;-60
2023/09/19 08:01:29;;;;;;;1.67;1.00;;;25.50;53.00;;;;;;4998553;28;20088;-61
2023/09/19 08:03:55;;;;;;;1.80;1.10;;;25.50;53.10;;;;;;4997923;28;20038;-63
2023/09/19 08:06:20;;;;;;;1.80;1.10;;;25.50;53.10;;;;;;4997899;28;20324;-61
2023/09/19 08:08:46;;;;;;;1.75;1.08;;;25.50;53.10;;;;;;4998872;28;20033;-61
2023/09/19 08:11:12;;;;;;;2.50;1.00;;;25.50;53.10;;;;;;4997195;28;20038;-62
2023/09/19 08:13:43;;;;;;;1.98;0.93;;;25.50;53.10;;;;;;5002035;28;20953;-61
2023/09/19 08:16:14;;;;;;;1.73;0.95;;;25.50;53.10;;;;;;5001904;28;20026;-62
2023/09/19 08:18:41;;;;;;;2.03;0.90;;;25.50;53.10;;;;;;5000925;28;20406;-62
2023/09/19 08:21:10;;;;;;;1.58;1.13;;;25.60;53.20;;;;;;5002549;28;20038;-61
2023/09/19 08:23:36;;;;;;;;;;;25.60;53.30;;;;;;5003028;28;20060;-61
2023/09/19 08:26:07;;;;;;;2.20;1.02;;;25.60;53.20;;;;;;4999739;28;19913;-61
2023/09/19 08:28:33;;;;;;;2.08;1.08;;;25.60;53.20;;;;;;5000087;28;20034;-61
2023/09/19 08:31:06;;;;;;;2.20;1.05;;;25.60;53.20;;;;;;4997390;28;20050;-61
2023/09/19 08:33:36;;;;;;;1.70;1.02;;;25.60;53.20;;;;;;5004391;28;20286;-62
2023/09/19 08:36:04;;;;;;;1.65;1.00;;;25.60;53.20;;;;;;5001376;28;20026;-61
2023/09/19 08:38:32;;;;;;;1.57;0.80;;;25.60;53.20;;;;;;5000730;28;20026;-65
2023/09/19 08:41:08;;;;;;;1.70;0.88;;;25.70;53.30;;;;;;5001063;28;20029;-65
2023/09/19 08:43:34;;;;;;;1.75;1.00;;;25.70;53.30;;;;;;5002098;28;20041;-65
2023/09/19 08:46:24;;;;;;;2.47;1.10;;;25.70;53.30;;;;;;4999668;28;20129;-65
2023/09/19 08:49:07;;;;;;;1.48;1.00;;;25.70;53.20;;;;;;5000532;28;20033;-62
2023/09/19 08:51:46;;;;;;;1.27;0.90;;;25.70;53.20;;;;;;5000899;28;20121;-62
2023/09/19 08:54:22;;;;;;;1.70;0.98;;;25.70;53.30;;;;;;5001755;28;20084;-63
2023/09/19 08:56:50;;;;;;;2.30;0.90;;;25.70;53.20;;;;;;4998014;28;20033;-63
2023/09/19 08:59:17;;;;;;;1.73;1.08;;;25.70;53.30;;;;;;5000890;28;20057;-63
2023/09/19 09:01:43;;;;;;;1.73;0.90;;;25.70;53.30;;;;;;5002328;28;20031;-63
2023/09/19 09:04:12;;;;;;;1.90;0.98;;;25.70;53.20;;;;;;5001468;28;20022;-63
2023/09/19 09:06:39;;;;;;;1.40;0.98;;;25.80;53.30;;;;;;5000919;28;20065;-63
2023/09/19 09:09:05;;;;;;;1.88;0.88;;;25.80;53.30;;;;;;5000917;28;20437;-63
2023/09/19 09:11:33;;;;;;;1.70;0.90;;;25.80;53.30;;;;;;4998699;28;20033;-63
2023/09/19 09:13:59;;;;;;;1.70;1.00;;;25.80;53.30;;;;;;4999381;28;20037;-63
2023/09/19 09:16:25;;;;;;;1.35;0.90;;;25.80;53.30;;;;;;5000666;28;20474;-63
2023/09/19 09:18:52;;;;;;;1.73;1.00;;;25.80;53.30;;;;;;5001342;28;20466;-63
2023/09/19 09:21:18;;;;;;;1.48;1.05;;;25.80;53.30;;;;;;5000281;28;20109;-63
2023/09/19 09:23:44;;;;;;;1.90;1.00;;;25.80;53.30;;;;;;5000744;28;20030;-63
2023/09/19 09:26:10;;;;;;;2.00;0.93;;;25.80;53.30;;;;;;4998231;28;20098;-63
2023/09/19 09:28:44;;;;;;;1.63;0.90;;;25.80;53.30;;;;;;5000627;28;20038;-63
2023/09/19 09:31:22;;;;;;;1.08;0.80;;;25.80;53.30;;;;;;5001147;28;20516;-63
2023/09/19 09:33:55;;;;;;;1.20;0.90;;;25.80;53.20;;;;;;4999926;28;20057;-63
2023/09/19 09:36:53;;;;;;;1.60;0.80;;;25.80;53.20;;;;;;4998812;28;20032;-63
2023/09/19 09:39:32;;;;;;;1.45;0.90;;;25.80;53.20;;;;;;4990979;28;20345;-63
2023/09/19 09:41:59;;;;;;;1.67;0.80;;;25.90;53.20;;;;;;4998145;28;20080;-63
2023/09/19 09:44:24;;;;;;;1.48;0.90;;;25.90;53.30;;;;;;5001349;28;20913;-63
2023/09/19 09:49:33;;;;;;;1.73;0.95;;;25.90;53.20;;;;;;4999233;28;20026;-66
2023/09/19 09:52:07;;;;;;;1.30;0.80;;;25.90;53.20;;;;;;4998835;28;20034;-66
2023/09/19 09:54:37;;;;;;;1.05;0.70;;;25.90;53.20;;;;;;4999833;28;20026;-65
2023/09/19 09:57:16;;;;;;;1.23;0.70;;;25.90;53.20;;;;;;4998495;28;20089;-65
2023/09/19 09:59:51;;;;;;;1.70;0.80;;;25.90;53.70;;;;;;4999312;28;20708;-63
2023/09/19 10:02:24;;;;;;;1.45;0.80;;;25.90;53.10;;;;;;4999797;28;20064;-64
2023/09/19 10:04:59;;;;;;;1.50;0.80;;;25.90;53.10;;;;;;4999642;28;20030;-64
2023/09/19 10:07:35;;;;;;;1.00;0.80;;;25.90;53.00;;;;;;4998051;28;20038;-64
2023/09/19 10:10:21;;;;;;;2.55;0.90;;;25.90;53.00;;;;;;5000759;28;20109;-64
2023/09/19 10:12:48;;;;;;;1.17;0.80;;;25.90;53.00;;;;;;4996780;28;20038;-64
2023/09/19 10:15:20;;;;;;;1.50;0.80;;;25.90;53.00;;;;;;4999352;28;20101;-64
2023/09/19 10:17:47;;;;;;;1.42;1.00;;;25.90;53.00;;;;;;5000453;28;20018;-64
2023/09/19 10:20:56;;;;;;;1.25;0.70;;;25.90;53.00;;;;;;4998442;28;20375;-64
2023/09/19 10:23:12;;;;;;;1.02;0.73;;;25.90;53.00;;;;;;5000388;28;20045;-64
2023/09/19 10:25:48;;;;;;;1.55;0.88;;;26.00;53.00;;;;;;4999784;28;20038;-64
2023/09/19 10:28:15;;;;;;;1.60;0.90;;;26.00;53.00;;;;;;4994437;28;20033;-64
2023/09/19 10:30:46;;;;;;;0.85;0.70;;;25.90;52.90;;;;;;4998117;28;20120;-64
2023/09/19 10:33:14;;;;;;;1.05;0.77;;;26.00;53.00;;;;;;4998015;28;20037;-64
2023/09/19 10:35:44;;;;;;;0.95;0.70;;;26.00;53.00;;;;;;4998548;28;20037;-63
2023/09/19 10:38:11;;;;;;;1.10;0.73;;;26.00;52.90;;;;;;4998336;28;20486;-63
2023/09/19 10:40:42;;;;;;;1.50;0.73;;;26.00;52.90;;;;;;4998298;28;20101;-64
2023/09/19 10:43:21;;;;;;;0.90;0.70;;;26.00;52.90;;;;;;4999136;28;20034;-64
2023/09/19 10:45:53;;;;;;;1.80;0.80;;;26.00;52.90;;;;;;5000729;28;20121;-64
2023/09/19 10:48:19;;;;;;;1.58;0.70;;;26.00;52.90;;;;;;4999232;28;20037;-64
2023/09/19 10:51:09;;;;;;;1.80;0.80;;;26.00;52.90;;;;;;5001929;28;20489;-64
2023/09/19 10:53:55;;;;;;;2.58;0.90;;;26.00;52.90;;;;;;5002965;28;20030;-64
2023/09/19 10:56:27;;;;;;;1.15;0.70;;;26.00;52.90;;;;;;4997714;28;20046;-64
2023/09/19 10:59:10;;;;;;;0.93;0.70;;;26.00;52.90;;;;;;4999836;28;20030;-64
2023/09/19 11:01:58;;;;;;;1.02;0.73;;;26.00;52.90;;;;;;4999608;28;20538;-64
2023/09/19 11:04:29;;;;;;;1.33;0.73;;;26.00;52.80;;;;;;4998028;28;20545;-64
2023/09/19 11:07:14;;;;;;;0.60;0.60;;;26.00;52.90;;;;;;4997334;28;20049;-63
2023/09/19 11:09:47;;;;;;;1.10;0.77;;;26.10;52.90;;;;;;5000165;28;20113;-65
2023/09/19 11:12:40;;;;;;;0.93;0.75;;;26.00;52.80;;;;;;4997666;28;20114;-65
2023/09/19 11:15:13;;;;;;;1.13;0.70;;;26.00;52.80;;;;;;4996375;28;20045;-64
2023/09/19 11:17:46;;;;;;;2.03;0.70;;;26.10;52.90;;;;;;4999154;28;20104;-65
2023/09/19 11:23:17;;;;;;;1.02;0.70;;;26.10;53.00;;;;;;4998915;28;20073;-65
2023/09/19 11:25:47;;;;;;;1.17;0.80;;;26.10;53.10;;;;;;4995284;28;20133;-65
2023/09/19 11:28:17;;;;;;;1.55;0.90;;;26.10;53.00;;;;;;4997697;28;20034;-65
2023/09/19 11:30:53;;;;;;;0.82;0.70;;;26.10;53.00;;;;;;5001208;28;20052;-65
2023/09/19 11:33:27;;;;;;;1.35;0.80;;;26.10;53.00;;;;;;4998467;28;20022;-64
2023/09/19 11:36:15;;;;;;;1.42;0.73;;;26.10;53.00;;;;;;4998392;28;20114;-65
2023/09/19 11:38:44;;;;;;;1.45;0.88;;;26.10;53.00;;;;;;4998639;28;20479;-65
2023/09/19 11:43:51;;;;;;;0.88;0.70;;;26.10;52.90;;;;;;4997360;28;20033;-65
2023/09/19 11:46:21;;;;;;;0.98;0.70;;;26.20;53.00;;;;;;4999519;28;20109;-65
2023/09/19 11:48:49;;;;;;;1.25;0.80;;;26.20;53.00;;;;;;5003021;28;20466;-64
2023/09/19 11:51:26;;;;;;;0.70;0.60;;;26.20;53.00;;;;;;5004402;28;20409;-65
2023/09/19 11:53:57;;;;;;;1.40;0.80;;;26.20;53.00;;;;;;5000548;28;20080;-65
2023/09/19 11:56:27;;;;;;;1.02;0.70;;;26.20;52.90;;;;;;5002170;28;20033;-65
2023/09/19 11:58:57;;;;;;;1.08;0.80;;;26.20;53.00;;;;;;5004044;28;20041;-65
2023/09/19 12:01:32;;;;;;;1.00;0.70;;;26.20;52.90;;;;;;5003582;28;20042;-65
2023/09/19 12:03:59;;;;;;;1.23;0.80;;;26.20;52.90;;;;;;5003453;28;20061;-65
2023/09/19 12:06:27;;;;;;;1.27;0.70;;;26.20;52.80;;;;;;5001671;28;20042;-66
2023/09/19 12:08:57;;;;;;;0.95;0.70;;;26.20;52.80;;;;;;5003792;28;20068;-63
2023/09/19 12:11:23;;;;;;;1.20;0.70;;;26.20;52.70;;;;;;4999908;28;20394;-62
2023/09/19 12:13:50;;;;;;;1.23;0.80;;;26.20;52.60;;;;;;5001071;28;20038;-63
2023/09/19 12:16:17;;;;;;;1.17;0.80;;;26.20;52.60;;;;;;5002043;28;20056;-63
2023/09/19 12:18:46;;;;;;;1.73;0.80;;;26.20;52.50;;;;;;5009651;28;20101;-67
2023/09/19 12:21:27;;;;;;;1.38;0.90;;;26.20;52.50;;;;;;5015586;28;20034;-67
2023/09/19 12:24:05;;;;;;;0.73;0.60;;;26.20;52.60;;;;;;5009675;28;20046;-66
2023/09/19 12:26:42;;;;;;;1.42;0.80;;;26.20;52.60;;;;;;5004543;28;20036;-67
2023/09/19 12:29:13;;;;;;;1.48;0.82;;;26.20;53.10;;;;;;4999512;28;20066;-66
2023/09/19 12:31:51;;;;;;;1.38;0.80;;;26.20;52.60;;;;;;5000653;28;20084;-66
2023/09/19 12:34:22;;;;;;;1.02;0.75;;;26.30;52.60;;;;;;5001024;28;20122;-66
2023/09/19 12:36:48;;;;;;;0.93;0.70;;;26.30;52.60;;;;;;5002315;28;20482;-67
2023/09/19 12:39:29;;;;;;;1.38;0.70;;;26.30;52.60;;;;;;5000302;28;20086;-66
2023/09/19 12:41:55;;;;;;;1.17;0.70;;;26.30;52.60;;;;;;5001030;28;20133;-66
2023/09/19 12:44:25;;;;;;;0.90;0.70;;;26.30;52.50;;;;;;5013746;28;20418;-67
2023/09/19 12:46:51;;;;;;;1.10;0.70;;;26.30;52.40;;;;;;5002265;28;20025;-67
2023/09/19 12:49:21;;;;;;;1.48;0.90;;;26.30;52.40;;;;;;5000719;28;20099;-66
2023/09/19 12:51:47;;;;;;;1.20;0.80;;;26.30;52.40;;;;;;5001020;28;20095;-67
2023/09/19 12:54:17;;;;;;;2.63;0.90;;;26.30;52.30;;;;;;4999078;28;20105;-66
2023/09/19 12:56:48;;;;;;;1.00;0.75;;;26.30;52.30;;;;;;5001587;28;20029;-66
2023/09/19 12:59:15;;;;;;;2.10;0.82;;;26.30;52.30;;;;;;4997423;28;20034;-67
2023/09/19 13:01:50;;;;;;;0.90;0.70;;;26.30;52.80;;;;;;4999317;28;20040;-66
2023/09/19 13:04:32;;;;;;;2.03;0.90;;;26.30;52.10;;;;;;5002346;28;20497;-67
2023/09/19 13:07:01;;;;;;;1.20;0.80;;;26.30;51.90;;;;;;5001986;28;20540;-66